Time;durP1;ratioP1;P1;durP2;ratioP2;P2;SDS_P1;SDS_P2;PMS_P1;PMS_P2;Temp;Humidity;BMP_temperature;BMP_pressure;BME280_temperature;BME280_humidity;BME280_pressure;Samples;Min_cycle;Max_cycle;Signal;HPM_P1;HPM_P2
2021/12/11 00:01:23;;;;;;;4.85;2.78;;;1.80;99.90;;;;;;5031847;28;20034;-76
2021/12/11 00:04:00;;;;;;;4.57;2.55;;;1.90;99.90;;;;;;5015009;28;20049;-76
2021/12/11 00:06:34;;;;;;;3.67;2.63;;;1.80;99.90;;;;;;5017663;28;20061;-76
2021/12/11 00:09:17;;;;;;;5.53;2.53;;;1.80;99.90;;;;;;5013470;28;20140;-76
2021/12/11 00:11:52;;;;;;;5.95;2.63;;;1.80;99.90;;;;;;5013574;28;20100;-76
2021/12/11 00:14:22;;;;;;;7.38;2.95;;;1.80;99.90;;;;;;5012067;28;20217;-76
2021/12/11 00:16:50;;;;;;;2.95;2.33;;;1.80;99.90;;;;;;5013312;28;20133;-76
2021/12/11 00:19:28;;;;;;;3.65;2.30;;;1.80;99.90;;;;;;5015724;28;20129;-77
2021/12/11 00:22:21;;;;;;;3.00;2.35;;;1.80;99.90;;;;;;5014980;28;20424;-77
2021/12/11 00:24:49;;;;;;;7.22;2.80;;;1.80;99.90;;;;;;5014864;28;20463;-76
2021/12/11 00:27:27;;;;;;;4.03;2.45;;;1.80;99.90;;;;;;5026392;28;20124;-76
2021/12/11 00:30:02;;;;;;;8.90;2.47;;;1.80;99.90;;;;;;5011580;28;20460;-76
2021/12/11 00:32:33;;;;;;;7.70;3.42;;;1.80;99.90;;;;;;5010165;28;20480;-76
2021/12/11 00:35:20;;;;;;;4.50;2.40;;;1.80;99.90;;;;;;4995399;28;20465;-76
2021/12/11 00:37:48;;;;;;;3.17;2.17;;;1.80;99.90;;;;;;5020498;28;20073;-76
2021/12/11 00:40:25;;;;;;;4.70;2.53;;;1.80;99.90;;;;;;5015999;28;20049;-77
2021/12/11 00:43:03;;;;;;;4.32;2.38;;;1.80;99.90;;;;;;5031112;28;20401;-76
2021/12/11 00:45:39;;;;;;;3.72;2.05;;;1.80;99.90;;;;;;5023777;28;20081;-76
2021/12/11 00:48:27;;;;;;;3.60;2.55;;;1.80;99.90;;;;;;5013581;28;20050;-76
2021/12/11 00:51:24;;;;;;;3.25;2.47;;;1.80;99.90;;;;;;5015081;28;20471;-76
2021/12/11 00:53:57;;;;;;;2.65;1.80;;;1.80;99.90;;;;;;5014505;28;20106;-77
2021/12/11 00:56:34;;;;;;;6.18;2.75;;;1.80;99.90;;;;;;5030540;28;20132;-76
2021/12/11 00:59:12;;;;;;;4.15;2.08;;;1.80;99.90;;;;;;5005772;28;20599;-77
2021/12/11 01:01:57;;;;;;;4.68;2.95;;;1.80;99.90;;;;;;5015008;28;20037;-77
2021/12/11 01:04:41;;;;;;;2.60;1.88;;;1.80;99.90;;;;;;5030859;28;20397;-77
2021/12/11 01:07:20;;;;;;;3.03;2.00;;;1.80;99.90;;;;;;5030904;28;20045;-77
2021/12/11 01:09:54;;;;;;;2.03;1.65;;;1.80;99.90;;;;;;5016002;28;20045;-77
2021/12/11 01:12:28;;;;;;;3.38;1.83;;;1.80;99.90;;;;;;5021240;28;20095;-77
2021/12/11 01:15:07;;;;;;;3.45;2.35;;;1.80;99.90;;;;;;5030777;28;20061;-77
2021/12/11 01:17:48;;;;;;;4.68;2.28;;;1.80;99.90;;;;;;5031093;28;20502;-77
2021/12/11 01:20:25;;;;;;;3.05;1.88;;;1.80;99.90;;;;;;5030252;28;20136;-76
2021/12/11 01:22:52;;;;;;;3.63;2.25;;;1.80;99.90;;;;;;5030917;28;20090;-78
2021/12/11 01:25:23;;;;;;;2.33;1.88;;;1.80;99.90;;;;;;5031496;28;20042;-78
2021/12/11 01:27:56;;;;;;;4.63;2.20;;;1.70;99.90;;;;;;5030966;28;20049;-78
2021/12/11 01:30:32;;;;;;;2.90;1.80;;;1.80;99.90;;;;;;5015908;28;20140;-78
2021/12/11 01:33:01;;;;;;;3.85;2.15;;;1.70;99.90;;;;;;5031929;28;20091;-78
2021/12/11 01:35:28;;;;;;;3.00;2.22;;;1.80;99.90;;;;;;5033840;28;20065;-78
2021/12/11 01:38:09;;;;;;;2.75;1.73;;;1.80;99.90;;;;;;5035428;28;20049;-78
2021/12/11 01:40:44;;;;;;;2.75;2.10;;;1.70;99.90;;;;;;4998233;28;20088;-78
2021/12/11 01:43:16;;;;;;;3.28;2.20;;;1.80;99.90;;;;;;4998547;28;20057;-78
2021/12/11 01:45:46;;;;;;;3.95;1.95;;;1.80;99.90;;;;;;4997492;28;20054;-78
2021/12/11 01:48:21;;;;;;;2.88;1.77;;;1.80;99.90;;;;;;4999616;28;20073;-78
2021/12/11 01:50:56;;;;;;;3.50;2.10;;;1.80;99.90;;;;;;5034921;28;20041;-78
2021/12/11 01:53:41;;;;;;;2.53;2.33;;;1.80;99.90;;;;;;5036342;28;20068;-78
2021/12/11 01:56:20;;;;;;;6.15;2.28;;;1.80;99.90;;;;;;5037059;28;20080;-79
2021/12/11 01:58:59;;;;;;;6.43;2.75;;;1.80;99.90;;;;;;5013661;28;20042;-78
2021/12/11 02:01:39;;;;;;;4.45;2.03;;;1.80;99.90;;;;;;5012737;28;20487;-78
2021/12/11 02:04:08;;;;;;;3.33;2.15;;;1.80;99.90;;;;;;5011611;28;20049;-79
2021/12/11 02:06:43;;;;;;;6.13;2.05;;;1.80;99.90;;;;;;5011975;28;20042;-78
2021/12/11 02:09:15;;;;;;;6.40;2.05;;;1.80;99.90;;;;;;5019025;28;20113;-78
2021/12/11 02:11:42;;;;;;;4.20;1.63;;;1.80;99.90;;;;;;5014387;28;20554;-78
2021/12/11 02:14:19;;;;;;;4.47;2.22;;;1.90;99.90;;;;;;5015123;28;20141;-78
2021/12/11 02:16:49;;;;;;;3.28;2.03;;;1.80;99.90;;;;;;5029557;28;20072;-77
2021/12/11 02:19:28;;;;;;;4.57;2.67;;;1.90;99.90;;;;;;5010490;28;20074;-77
2021/12/11 02:22:00;;;;;;;2.92;2.28;;;1.90;99.90;;;;;;5010425;28;20131;-77
2021/12/11 02:24:45;;;;;;;3.55;2.30;;;1.90;99.90;;;;;;5019405;28;20510;-77
2021/12/11 02:27:33;;;;;;;4.47;2.47;;;1.90;99.90;;;;;;5030396;28;20081;-77
2021/12/11 02:30:35;;;;;;;4.30;2.60;;;1.80;99.90;;;;;;5028340;28;20061;-77
2021/12/11 02:33:18;;;;;;;5.93;2.63;;;1.80;99.90;;;;;;5014332;28;20077;-77
2021/12/11 02:36:09;;;;;;;3.42;2.55;;;1.80;99.90;;;;;;4995608;28;20145;-77
2021/12/11 02:38:49;;;;;;;3.65;2.50;;;1.80;99.90;;;;;;4996535;28;20070;-77
2021/12/11 02:41:29;;;;;;;3.78;3.05;;;1.90;99.90;;;;;;5012373;28;20144;-77
2021/12/11 02:44:10;;;;;;;6.22;2.63;;;1.80;99.90;;;;;;5017852;28;20567;-77
2021/12/11 02:47:20;;;;;;;5.47;2.60;;;1.80;99.90;;;;;;5017262;28;20045;-77
2021/12/11 02:50:03;;;;;;;5.07;2.75;;;1.80;99.90;;;;;;5018770;28;20500;-79
2021/12/11 02:52:32;;;;;;;2.92;2.63;;;1.80;99.90;;;;;;5035187;28;20561;-77
2021/12/11 02:55:22;;;;;;;4.35;2.38;;;1.80;99.90;;;;;;5005610;28;20092;-78
2021/12/11 02:58:14;;;;;;;5.80;2.78;;;1.80;99.90;;;;;;5023824;28;20061;-78
2021/12/11 03:00:47;;;;;;;3.55;2.70;;;1.80;99.90;;;;;;5020100;28;20566;-79
2021/12/11 03:03:15;;;;;;;5.15;2.80;;;1.80;99.90;;;;;;5018752;28;20042;-79
2021/12/11 03:06:00;;;;;;;4.07;2.58;;;1.80;99.90;;;;;;5015348;28;20133;-77
2021/12/11 03:08:32;;;;;;;4.60;2.25;;;1.80;99.90;;;;;;5015060;28;20046;-77
2021/12/11 03:11:10;;;;;;;4.82;2.50;;;1.80;99.90;;;;;;5013483;28;20526;-77
2021/12/11 03:13:39;;;;;;;4.55;2.70;;;1.80;99.90;;;;;;5014600;28;20096;-76
2021/12/11 03:16:07;;;;;;;4.22;2.38;;;1.80;99.90;;;;;;5017005;28;20080;-76
2021/12/11 03:18:34;;;;;;;3.30;2.78;;;1.80;99.90;;;;;;5012444;28;20065;-76
2021/12/11 03:21:03;;;;;;;4.07;2.40;;;1.80;99.90;;;;;;5013407;28;20111;-76
2021/12/11 03:23:30;;;;;;;6.03;2.80;;;1.80;99.90;;;;;;5013184;28;20116;-77
2021/12/11 03:26:02;;;;;;;5.63;2.55;;;1.80;99.90;;;;;;5033120;28;20080;-77
2021/12/11 03:28:29;;;;;;;4.85;3.03;;;1.90;99.90;;;;;;5016611;28;20057;-76
2021/12/11 03:30:59;;;;;;;4.03;3.00;;;1.90;99.90;;;;;;5016278;28;20472;-77
2021/12/11 03:33:35;;;;;;;3.35;2.42;;;1.80;99.90;;;;;;5032248;28;20065;-77
2021/12/11 03:36:11;;;;;;;4.78;2.53;;;1.80;99.90;;;;;;4997254;28;20145;-76
2021/12/11 03:38:48;;;;;;;2.42;1.90;;;1.80;99.90;;;;;;5012643;28;20472;-76
2021/12/11 03:41:22;;;;;;;3.67;2.65;;;1.80;99.90;;;;;;4997021;28;20054;-76
2021/12/11 03:43:49;;;;;;;4.70;2.63;;;1.80;99.90;;;;;;5014178;28;20065;-77
2021/12/11 03:46:17;;;;;;;4.43;3.03;;;1.80;99.90;;;;;;5016457;28;20136;-78
2021/12/11 03:48:56;;;;;;;4.15;2.47;;;1.80;99.90;;;;;;5034474;28;20084;-78
2021/12/11 03:51:28;;;;;;;3.63;2.15;;;1.80;99.90;;;;;;5033045;28;20103;-77
2021/12/11 03:53:56;;;;;;;3.35;2.47;;;1.80;99.90;;;;;;5013018;28;20065;-77
2021/12/11 03:56:23;;;;;;;6.25;2.28;;;1.80;99.90;;;;;;5012405;28;20073;-77
2021/12/11 03:58:51;;;;;;;4.18;2.53;;;1.80;99.90;;;;;;5013246;28;20445;-78
2021/12/11 04:01:26;;;;;;;9.77;2.60;;;1.80;99.90;;;;;;5030206;28;20076;-77
2021/12/11 04:03:58;;;;;;;3.25;1.90;;;1.80;99.90;;;;;;5015340;28;20057;-78
2021/12/11 04:06:31;;;;;;;3.80;2.28;;;1.80;99.90;;;;;;5016220;28;20484;-77
2021/12/11 04:08:59;;;;;;;4.43;2.10;;;1.80;99.90;;;;;;5012704;28;20042;-77
2021/12/11 04:11:29;;;;;;;2.72;1.88;;;1.80;99.90;;;;;;5011993;28;20129;-78
2021/12/11 04:14:02;;;;;;;3.17;1.90;;;1.80;99.90;;;;;;5012015;28;20080;-78
2021/12/11 04:16:29;;;;;;;2.63;1.73;;;1.80;99.90;;;;;;5012349;28;20046;-77
2021/12/11 04:19:02;;;;;;;4.60;2.25;;;1.80;99.90;;;;;;5012238;28;20069;-77
2021/12/11 04:21:35;;;;;;;3.63;2.03;;;1.80;99.90;;;;;;5012195;28;20133;-77
2021/12/11 04:24:09;;;;;;;2.65;1.80;;;1.80;99.90;;;;;;5012038;28;20073;-76
2021/12/11 04:26:41;;;;;;;3.30;1.88;;;1.80;99.90;;;;;;4996277;28;20157;-76
2021/12/11 04:29:13;;;;;;;4.70;2.22;;;1.80;99.90;;;;;;5016379;28;20144;-77
2021/12/11 04:31:46;;;;;;;2.97;2.00;;;1.80;99.90;;;;;;5031250;28;20148;-76
2021/12/11 04:34:17;;;;;;;2.42;1.80;;;1.80;99.90;;;;;;5014900;28;20053;-77
2021/12/11 04:36:48;;;;;;;6.75;3.30;;;1.80;99.90;;;;;;5031474;28;20119;-76
2021/12/11 04:39:22;;;;;;;4.85;2.42;;;1.80;99.90;;;;;;5009928;28;20136;-76
2021/12/11 04:42:03;;;;;;;;;;;1.80;99.90;;;;;;4996481;28;20072;-76
2021/12/11 04:44:41;;;;;;;3.67;1.83;;;1.70;99.90;;;;;;5011546;28;20020;-76
2021/12/11 04:47:29;;;;;;;4.10;2.10;;;1.70;99.90;;;;;;5011441;28;20137;-76
2021/12/11 04:50:10;;;;;;;2.95;2.22;;;1.80;99.90;;;;;;5021792;28;20124;-77
2021/12/11 04:52:58;;;;;;;2.55;2.05;;;1.80;99.90;;;;;;5015350;28;20132;-76
2021/12/11 05:04:10;;;;;;;5.28;2.25;;;1.70;99.90;;;;;;5031096;28;20137;-78
2021/12/11 05:14:43;;;;;;;4.53;2.30;;;1.70;99.90;;;;;;5012430;28;20110;-77
2021/12/11 05:17:11;;;;;;;3.22;2.08;;;1.70;99.90;;;;;;5012520;28;20319;-78
2021/12/11 05:19:39;;;;;;;3.85;2.70;;;1.70;99.90;;;;;;5024519;28;20512;-77
2021/12/11 05:22:08;;;;;;;4.38;2.10;;;1.60;99.90;;;;;;5011640;28;20045;-78
2021/12/11 05:24:39;;;;;;;3.33;2.13;;;1.70;99.90;;;;;;5012057;28;20080;-78
2021/12/11 05:27:11;;;;;;;2.50;2.15;;;1.60;99.90;;;;;;5011941;28;20133;-78
2021/12/11 05:29:43;;;;;;;2.90;2.08;;;1.60;99.90;;;;;;5023310;28;20132;-78
2021/12/11 05:32:15;;;;;;;3.97;2.20;;;1.60;99.90;;;;;;5032554;28;20056;-78
2021/12/11 05:34:42;;;;;;;4.53;2.10;;;1.60;99.90;;;;;;5018075;28;20072;-78
2021/12/11 05:37:15;;;;;;;2.80;2.20;;;1.60;99.90;;;;;;5043916;28;20120;-78
2021/12/11 05:39:42;;;;;;;2.80;2.25;;;1.60;99.90;;;;;;5019861;28;20046;-78
2021/12/11 05:42:09;;;;;;;3.13;2.10;;;1.60;99.90;;;;;;5041040;28;20098;-78
2021/12/11 05:44:36;;;;;;;5.43;2.33;;;1.60;99.90;;;;;;5026080;28;20073;-78
2021/12/11 05:47:04;;;;;;;6.15;3.47;;;1.60;99.90;;;;;;5023442;28;20132;-78
2021/12/11 05:49:36;;;;;;;2.83;2.10;;;1.60;99.90;;;;;;5032863;28;20121;-77
2021/12/11 05:52:08;;;;;;;4.57;2.38;;;1.60;99.90;;;;;;5031237;28;20129;-77
2021/12/11 05:54:36;;;;;;;3.53;2.30;;;1.60;99.90;;;;;;5015879;28;20504;-77
2021/12/11 05:57:08;;;;;;;2.67;2.22;;;1.60;99.90;;;;;;5046827;28;20068;-77
2021/12/11 05:59:35;;;;;;;3.85;2.35;;;1.60;99.90;;;;;;5049204;28;20112;-76
2021/12/11 06:02:19;;;;;;;3.13;2.28;;;1.60;99.90;;;;;;5018367;28;20049;-76
2021/12/11 06:04:50;;;;;;;5.00;2.10;;;1.60;99.90;;;;;;5029122;28;20140;-77
2021/12/11 06:07:19;;;;;;;3.10;2.80;;;1.70;99.90;;;;;;5045219;28;20478;-77
2021/12/11 06:09:53;;;;;;;;;;;1.60;99.90;;;;;;5028984;28;20567;-76
2021/12/11 06:12:22;;;;;;;2.63;2.20;;;1.60;99.90;;;;;;5028030;28;20012;-77
2021/12/11 06:14:50;;;;;;;2.90;2.50;;;1.70;99.90;;;;;;5015870;28;20046;-77
2021/12/11 06:17:22;;;;;;;3.20;2.58;;;1.60;99.90;;;;;;5017692;28;20107;-77
2021/12/11 06:19:52;;;;;;;3.17;2.30;;;1.60;99.90;;;;;;5018119;28;20049;-77
2021/12/11 06:22:29;;;;;;;3.55;2.83;;;1.60;99.90;;;;;;5013228;28;20524;-77
2021/12/11 06:25:07;;;;;;;4.57;2.92;;;1.70;99.90;;;;;;5049386;28;20051;-77
2021/12/11 06:27:39;;;;;;;3.22;2.38;;;1.70;99.90;;;;;;5036833;28;20139;-77
2021/12/11 06:30:12;;;;;;;3.30;2.58;;;1.70;99.90;;;;;;5031538;28;20136;-77
2021/12/11 06:32:40;;;;;;;4.03;1.02;;;1.70;99.90;;;;;;5045485;28;20069;-76
2021/12/11 06:35:32;;;;;;;0.80;0.70;;;1.50;99.90;;;;;;5017229;28;20128;-76
2021/12/11 06:38:06;;;;;;;3.20;1.05;;;1.30;99.90;;;;;;5010343;28;20073;-76
2021/12/11 06:40:34;;;;;;;3.33;1.90;;;1.10;99.90;;;;;;5030145;28;20045;-76
2021/12/11 06:43:06;;;;;;;3.80;1.80;;;1.00;99.90;;;;;;5028368;28;20045;-76
2021/12/11 06:45:38;;;;;;;3.42;1.95;;;1.00;99.90;;;;;;5030286;28;20128;-76
2021/12/11 06:48:10;;;;;;;3.70;2.15;;;1.00;99.90;;;;;;5016215;28;20552;-76
2021/12/11 06:50:43;;;;;;;4.03;2.53;;;0.90;99.90;;;;;;5016693;28;20448;-76
2021/12/11 06:53:39;;;;;;;2.65;1.70;;;0.90;99.90;;;;;;5017408;28;20073;-76
2021/12/11 06:56:08;;;;;;;2.35;1.52;;;0.90;99.90;;;;;;5005784;28;20050;-77
2021/12/11 06:58:40;;;;;;;2.25;1.50;;;0.90;99.90;;;;;;5016694;28;20138;-77
2021/12/11 07:01:08;;;;;;;1.08;0.95;;;0.90;99.90;;;;;;5022297;28;20057;-76
2021/12/11 07:03:37;;;;;;;1.83;1.40;;;0.90;99.90;;;;;;5006962;28;20047;-77
2021/12/11 07:06:05;;;;;;;1.67;1.35;;;0.90;99.90;;;;;;5035502;28;20045;-77
2021/12/11 07:08:38;;;;;;;1.73;1.27;;;0.80;99.90;;;;;;5048690;28;20131;-77
2021/12/11 07:11:12;;;;;;;1.80;1.42;;;0.80;99.90;;;;;;5051574;28;20045;-76
2021/12/11 07:13:41;;;;;;;2.30;1.90;;;0.90;99.90;;;;;;5051245;28;20396;-77
2021/12/11 07:16:12;;;;;;;;;;;0.90;99.90;;;;;;5049949;28;20045;-76
2021/12/11 07:18:39;;;;;;;1.67;1.33;;;0.90;99.90;;;;;;5013648;28;19964;-76
2021/12/11 07:21:07;;;;;;;3.17;2.17;;;0.80;99.90;;;;;;5051205;28;20407;-76
2021/12/11 07:23:35;;;;;;;7.75;4.18;;;0.80;99.90;;;;;;5034933;28;20049;-77
2021/12/11 07:26:15;;;;;;;2.65;2.08;;;0.80;99.90;;;;;;5049919;28;20065;-77
2021/12/11 07:28:50;;;;;;;3.35;2.80;;;0.90;99.90;;;;;;5014075;28;20073;-77
2021/12/11 07:31:24;;;;;;;3.13;2.70;;;0.90;99.90;;;;;;5012129;28;20100;-76
2021/12/11 07:33:52;;;;;;;4.13;3.20;;;1.00;99.90;;;;;;5011559;28;20050;-77
2021/12/11 07:36:25;;;;;;;3.63;2.70;;;1.00;99.90;;;;;;5012033;28;20069;-76
2021/12/11 07:38:59;;;;;;;;;;;1.00;99.90;;;;;;5013978;28;20065;-76
2021/12/11 07:41:26;;;;;;;3.25;2.92;;;1.00;99.90;;;;;;5012393;28;20011;-76
2021/12/11 07:43:59;;;;;;;4.38;2.65;;;1.00;99.90;;;;;;5011722;28;20149;-76
2021/12/11 07:46:32;;;;;;;3.40;2.30;;;1.00;99.90;;;;;;5012444;28;20081;-77
2021/12/11 07:49:06;;;;;;;4.13;3.28;;;1.10;99.90;;;;;;5012179;28;20117;-76
2021/12/11 07:51:39;;;;;;;4.53;3.13;;;1.10;99.90;;;;;;5012043;28;20049;-77
2021/12/11 07:54:12;;;;;;;3.47;3.10;;;1.10;99.90;;;;;;5012417;28;20128;-77
2021/12/11 07:56:40;;;;;;;6.35;4.00;;;1.10;99.90;;;;;;4994347;28;20049;-77
2021/12/11 07:59:09;;;;;;;6.13;3.88;;;1.10;99.90;;;;;;5010381;28;20065;-76
2021/12/11 08:01:41;;;;;;;6.55;4.50;;;1.10;99.90;;;;;;5010408;28;20546;-77
2021/12/11 08:04:08;;;;;;;17.02;9.45;;;1.10;99.90;;;;;;5006856;28;20499;-77
2021/12/11 08:06:38;;;;;;;8.68;5.32;;;1.10;99.90;;;;;;5012961;28;20049;-77
2021/12/11 08:09:14;;;;;;;7.22;4.47;;;1.20;99.90;;;;;;5028727;28;20107;-76
2021/12/11 08:11:47;;;;;;;18.70;11.55;;;1.20;99.90;;;;;;5031806;28;20077;-77
2021/12/11 08:14:22;;;;;;;15.38;8.35;;;1.20;99.90;;;;;;5017282;28;20050;-76
2021/12/11 08:16:53;;;;;;;17.30;11.43;;;1.20;99.90;;;;;;5012695;28;20042;-78
2021/12/11 08:19:27;;;;;;;7.80;4.75;;;1.20;99.90;;;;;;5011748;28;20078;-77
2021/12/11 08:21:58;;;;;;;6.75;5.20;;;1.20;99.90;;;;;;5011400;28;20049;-76
2021/12/11 08:24:28;;;;;;;11.98;8.25;;;1.20;99.90;;;;;;5028553;28;20049;-77
2021/12/11 08:27:04;;;;;;;7.90;5.20;;;1.20;99.90;;;;;;5024071;28;20065;-76
2021/12/11 08:29:36;;;;;;;3.40;3.00;;;1.20;99.90;;;;;;5029711;28;20091;-76
2021/12/11 08:32:05;;;;;;;3.47;2.53;;;1.20;99.90;;;;;;5030579;28;20465;-76
2021/12/11 08:34:31;;;;;;;3.67;2.75;;;1.20;99.90;;;;;;5013213;28;20160;-76
2021/12/11 08:37:08;;;;;;;3.28;2.67;;;1.20;99.90;;;;;;5015535;28;20061;-76
2021/12/11 08:39:36;;;;;;;4.43;2.70;;;1.20;99.90;;;;;;5018391;28;20049;-76
2021/12/11 08:42:06;;;;;;;4.85;3.00;;;1.30;99.90;;;;;;5013895;28;20099;-76
2021/12/11 08:44:37;;;;;;;3.95;3.10;;;1.30;99.90;;;;;;5015408;28;20072;-76
2021/12/11 08:47:10;;;;;;;10.93;6.10;;;1.30;99.90;;;;;;5013805;28;20072;-76
2021/12/11 08:49:40;;;;;;;10.25;6.13;;;1.30;99.90;;;;;;5027807;28;20145;-76
2021/12/11 08:52:18;;;;;;;25.15;13.52;;;1.30;99.90;;;;;;5010729;28;20045;-76
2021/12/11 08:54:46;;;;;;;31.98;18.83;;;1.40;99.90;;;;;;5025863;28;20049;-76
2021/12/11 08:57:17;;;;;;;23.50;15.38;;;1.40;99.90;;;;;;4997171;28;20133;-77
2021/12/11 08:59:57;;;;;;;17.75;9.98;;;1.50;99.90;;;;;;5022521;28;20140;-77
2021/12/11 09:02:34;;;;;;;14.10;9.18;;;1.40;99.90;;;;;;5013752;28;20084;-76
2021/12/11 09:05:16;;;;;;;24.95;13.40;;;1.40;99.90;;;;;;5014289;28;20844;-76
2021/12/11 09:08:15;;;;;;;17.83;9.70;;;1.50;99.90;;;;;;5014556;28;20474;-76
2021/12/11 09:11:19;;;;;;;33.70;16.23;;;1.50;99.90;;;;;;5014829;28;20050;-76
2021/12/11 09:13:53;;;;;;;6.55;4.75;;;1.50;99.90;;;;;;5030059;28;20088;-76
2021/12/11 09:16:32;;;;;;;10.93;6.75;;;1.50;99.90;;;;;;5014944;28;20136;-75
2021/12/11 09:19:14;;;;;;;6.35;4.57;;;1.50;99.90;;;;;;5013749;28;20079;-76
2021/12/11 09:22:31;;;;;;;8.80;5.82;;;1.50;99.90;;;;;;5014190;28;20136;-76
2021/12/11 09:25:13;;;;;;;12.32;8.27;;;1.60;99.90;;;;;;5012069;28;20144;-76
2021/12/11 09:28:20;;;;;;;6.85;4.88;;;1.60;99.90;;;;;;5029391;28;20266;-76
2021/12/11 09:31:01;;;;;;;5.20;4.25;;;1.60;99.90;;;;;;5021284;28;20084;-76
2021/12/11 09:33:42;;;;;;;4.95;4.07;;;1.70;99.90;;;;;;5029017;28;20144;-76
2021/12/11 09:36:13;;;;;;;5.10;4.18;;;1.70;99.90;;;;;;5029390;28;20136;-76
2021/12/11 09:38:46;;;;;;;9.52;5.93;;;1.70;99.90;;;;;;5029999;28;20141;-76
2021/12/11 09:41:21;;;;;;;11.98;6.95;;;1.70;99.90;;;;;;5030786;28;20117;-75
2021/12/11 09:44:30;;;;;;;10.70;6.70;;;1.70;99.90;;;;;;5030775;28;20047;-76
2021/12/11 09:47:19;;;;;;;8.55;5.90;;;1.70;99.90;;;;;;5009941;28;20038;-76
2021/12/11 09:49:54;;;;;;;5.38;4.13;;;1.70;99.90;;;;;;4995483;28;20053;-77
2021/12/11 09:52:24;;;;;;;8.63;4.88;;;1.70;99.90;;;;;;5014057;28;20050;-76
2021/12/11 09:55:09;;;;;;;5.43;4.60;;;1.70;99.90;;;;;;5013521;28;20064;-75
2021/12/11 09:57:46;;;;;;;5.57;4.55;;;1.80;99.90;;;;;;5015108;28;20192;-76
2021/12/11 10:00:21;;;;;;;5.93;4.88;;;1.80;99.90;;;;;;5016102;28;20092;-76
2021/12/11 10:02:49;;;;;;;5.65;4.85;;;1.80;99.90;;;;;;5009134;28;20054;-76
2021/12/11 10:05:32;;;;;;;6.15;5.43;;;1.90;99.90;;;;;;5031118;28;20045;-76
2021/12/11 10:08:32;;;;;;;6.43;5.30;;;1.90;99.90;;;;;;5025650;28;20080;-76
2021/12/11 10:11:14;;;;;;;6.30;4.45;;;1.90;99.90;;;;;;5012873;28;20074;-76
2021/12/11 10:13:48;;;;;;;6.70;5.22;;;1.90;99.90;;;;;;4999419;28;20042;-75
2021/12/11 10:16:19;;;;;;;5.97;4.88;;;1.90;99.90;;;;;;5021988;28;20061;-76
2021/12/11 10:18:51;;;;;;;7.00;5.57;;;1.90;99.90;;;;;;5032095;28;22094;-75
2021/12/11 10:21:27;;;;;;;6.13;5.47;;;1.90;99.90;;;;;;5003097;28;20137;-76
2021/12/11 10:23:58;;;;;;;5.25;4.55;;;2.00;99.90;;;;;;5026974;28;20045;-76
2021/12/11 10:26:32;;;;;;;5.05;4.55;;;1.90;99.90;;;;;;5016360;28;20077;-76
2021/12/11 10:29:10;;;;;;;6.28;5.30;;;1.90;99.90;;;;;;5026823;28;20058;-75
2021/12/11 10:31:47;;;;;;;7.47;5.22;;;1.90;99.90;;;;;;5031452;28;20046;-76
2021/12/11 10:34:23;;;;;;;8.25;5.38;;;1.90;99.90;;;;;;5013948;28;20664;-75
2021/12/11 10:36:56;;;;;;;8.23;5.78;;;1.90;99.90;;;;;;5045456;28;20065;-75
2021/12/11 10:39:29;;;;;;;5.78;4.85;;;1.80;99.90;;;;;;5037597;28;20121;-76
2021/12/11 10:42:02;;;;;;;5.28;4.57;;;1.90;99.90;;;;;;5016229;28;20034;-75
2021/12/11 10:44:39;;;;;;;6.28;5.15;;;1.90;99.90;;;;;;5016511;28;20052;-73
2021/12/11 10:47:12;;;;;;;5.75;4.40;;;1.80;99.90;;;;;;5031563;28;20069;-75
2021/12/11 10:49:49;;;;;;;6.03;4.78;;;1.90;99.90;;;;;;5033154;28;20068;-75
2021/12/11 10:52:25;;;;;;;5.32;4.15;;;1.90;99.90;;;;;;5034402;28;20045;-74
2021/12/11 10:55:01;;;;;;;6.38;5.25;;;1.90;99.90;;;;;;5039521;28;20065;-75
2021/12/11 10:57:31;;;;;;;8.15;5.43;;;1.90;99.90;;;;;;5030111;28;20562;-75
2021/12/11 11:00:04;;;;;;;5.60;4.63;;;1.90;99.90;;;;;;5013696;28;20459;-74
2021/12/11 11:02:32;;;;;;;6.45;4.85;;;2.00;99.90;;;;;;5017357;28;20452;-75
2021/12/11 11:05:13;;;;;;;8.38;5.88;;;2.00;99.90;;;;;;5017439;28;20057;-74
2021/12/11 11:07:47;;;;;;;8.27;6.45;;;2.00;99.90;;;;;;5030360;28;20045;-75
2021/12/11 11:10:25;;;;;;;6.63;5.30;;;2.00;99.90;;;;;;5026012;28;20041;-76
2021/12/11 11:12:56;;;;;;;6.72;4.78;;;2.10;99.90;;;;;;5031040;28;20452;-74
2021/12/11 11:15:25;;;;;;;5.88;4.80;;;2.00;99.90;;;;;;5012801;28;20398;-75
2021/12/11 11:17:55;;;;;;;5.70;5.05;;;2.10;99.90;;;;;;5037385;28;20033;-75
2021/12/11 11:20:35;;;;;;;6.57;5.20;;;2.10;99.90;;;;;;5037195;28;20045;-75
2021/12/11 11:23:05;;;;;;;5.78;4.82;;;2.10;99.90;;;;;;5015295;28;20068;-76
2021/12/11 11:25:36;;;;;;;9.20;6.20;;;2.20;99.90;;;;;;5027422;28;20046;-75
2021/12/11 11:28:12;;;;;;;14.88;9.73;;;2.10;99.90;;;;;;5027162;28;20129;-76
2021/12/11 11:30:54;;;;;;;14.57;8.82;;;2.10;99.90;;;;;;5019394;28;20049;-76
2021/12/11 11:33:22;;;;;;;12.27;8.18;;;2.20;99.90;;;;;;5028398;28;20568;-75
2021/12/11 11:35:50;;;;;;;8.85;6.70;;;2.10;99.90;;;;;;5023808;28;20077;-76
2021/12/11 11:38:26;;;;;;;7.97;6.55;;;2.10;99.90;;;;;;5033047;28;20037;-76
2021/12/11 11:41:08;;;;;;;7.10;5.55;;;2.10;99.90;;;;;;5020971;28;20045;-76
2021/12/11 11:43:36;;;;;;;6.28;4.85;;;2.10;99.90;;;;;;5017490;28;20479;-76
2021/12/11 11:46:03;;;;;;;7.85;6.05;;;2.10;99.90;;;;;;5011251;28;20418;-75
2021/12/11 11:48:35;;;;;;;6.88;5.05;;;2.10;99.90;;;;;;5019150;28;20045;-75
2021/12/11 11:51:11;;;;;;;9.85;5.47;;;2.10;99.90;;;;;;5019821;28;20052;-76
2021/12/11 11:53:46;;;;;;;6.53;5.30;;;2.20;99.90;;;;;;5009887;28;20045;-76
2021/12/11 11:56:17;;;;;;;7.55;4.15;;;2.20;99.90;;;;;;5038062;28;20045;-75
2021/12/11 11:58:46;;;;;;;7.25;5.25;;;2.20;99.90;;;;;;5043512;28;20052;-75
2021/12/11 12:01:28;;;;;;;6.00;4.70;;;2.20;99.90;;;;;;5037746;28;20033;-75
2021/12/11 12:03:57;;;;;;;5.78;4.80;;;2.20;99.90;;;;;;5010878;28;20044;-76
2021/12/11 12:06:32;;;;;;;6.28;4.82;;;2.20;99.90;;;;;;5024076;28;20034;-75
2021/12/11 12:09:09;;;;;;;6.32;4.95;;;2.20;99.90;;;;;;5019906;28;20046;-75
2021/12/11 12:11:42;;;;;;;8.35;5.70;;;2.20;99.90;;;;;;5049283;28;20519;-76
2021/12/11 12:14:16;;;;;;;7.72;6.05;;;2.10;99.90;;;;;;5026705;28;20461;-75
2021/12/11 12:16:46;;;;;;;8.02;6.28;;;2.10;99.90;;;;;;5029867;28;20686;-76
2021/12/11 12:19:19;;;;;;;8.35;6.25;;;2.10;99.90;;;;;;5033231;28;20095;-75
2021/12/11 12:21:49;;;;;;;7.13;6.07;;;2.20;99.90;;;;;;5033250;28;20045;-76
2021/12/11 12:24:27;;;;;;;7.30;5.53;;;2.20;99.90;;;;;;5011441;28;20527;-75
2021/12/11 12:27:03;;;;;;;9.30;6.32;;;2.20;99.90;;;;;;5013516;28;20052;-76
2021/12/11 12:29:42;;;;;;;8.98;6.20;;;2.30;99.90;;;;;;5033039;28;20419;-75
2021/12/11 12:32:15;;;;;;;11.40;6.88;;;2.30;99.90;;;;;;5051179;28;20083;-75
2021/12/11 12:34:52;;;;;;;9.50;6.85;;;2.30;99.90;;;;;;5049455;28;20053;-75
2021/12/11 12:37:20;;;;;;;10.20;7.40;;;2.40;99.90;;;;;;5037576;28;20052;-75
2021/12/11 12:39:50;;;;;;;10.85;7.32;;;2.30;99.90;;;;;;5015607;28;20459;-76
2021/12/11 12:42:28;;;;;;;10.60;7.55;;;2.30;99.90;;;;;;5046110;28;20045;-75
2021/12/11 12:45:18;;;;;;;10.60;7.53;;;2.30;99.90;;;;;;5030830;28;20403;-75
2021/12/11 12:47:51;;;;;;;11.73;6.70;;;2.30;99.90;;;;;;5025134;28;20041;-76
2021/12/11 12:50:33;;;;;;;10.52;7.05;;;2.20;99.90;;;;;;5022695;28;20037;-75
2021/12/11 12:53:01;;;;;;;9.43;7.05;;;2.20;99.90;;;;;;5032097;28;20518;-75
2021/12/11 12:55:36;;;;;;;9.95;7.32;;;2.20;99.90;;;;;;5022233;28;20073;-75
2021/12/11 12:58:20;;;;;;;10.80;7.80;;;2.20;99.90;;;;;;5044004;28;20467;-75
2021/12/11 13:00:57;;;;;;;10.93;7.88;;;2.30;99.90;;;;;;5045445;28;20148;-76
2021/12/11 13:03:35;;;;;;;11.63;7.53;;;2.20;99.90;;;;;;5013184;28;20084;-76
2021/12/11 13:06:19;;;;;;;11.38;7.45;;;2.20;99.90;;;;;;5011276;28;20046;-76
2021/12/11 13:08:55;;;;;;;15.05;8.00;;;2.10;99.90;;;;;;5011369;28;20481;-75
2021/12/11 13:11:33;;;;;;;10.80;8.13;;;2.10;99.90;;;;;;4998065;28;20037;-75
2021/12/11 13:14:01;;;;;;;12.63;8.30;;;2.10;99.90;;;;;;5027382;28;20061;-75
2021/12/11 13:16:38;;;;;;;11.48;8.23;;;2.10;99.90;;;;;;5008118;28;20624;-78
2021/12/11 13:19:20;;;;;;;10.60;8.00;;;2.20;99.90;;;;;;5030668;28;20041;-75
2021/12/11 13:21:58;;;;;;;13.60;9.55;;;2.20;99.90;;;;;;5025195;28;20038;-75
2021/12/11 13:24:25;;;;;;;11.55;8.38;;;2.20;99.90;;;;;;5017947;28;20500;-75
2021/12/11 13:26:57;;;;;;;12.82;7.78;;;2.20;99.90;;;;;;5014691;28;20044;-75
2021/12/11 13:29:34;;;;;;;10.65;8.77;;;2.20;99.90;;;;;;5003213;28;20091;-75
2021/12/11 13:32:11;;;;;;;12.18;8.70;;;2.10;99.90;;;;;;5018448;28;20050;-75
2021/12/11 13:34:40;;;;;;;13.50;9.55;;;2.10;99.90;;;;;;5018134;28;20038;-75
2021/12/11 13:37:12;;;;;;;17.23;10.07;;;2.10;99.90;;;;;;5021049;28;20485;-75
2021/12/11 13:39:48;;;;;;;14.20;9.80;;;2.10;99.90;;;;;;5010901;28;20034;-75
2021/12/11 13:42:20;;;;;;;15.55;10.27;;;2.10;99.90;;;;;;5018655;28;20133;-75
2021/12/11 13:44:52;;;;;;;13.90;10.57;;;2.10;99.90;;;;;;5009206;28;20060;-75
2021/12/11 13:47:30;;;;;;;14.00;10.02;;;2.10;99.90;;;;;;5015621;28;20113;-75
2021/12/11 13:49:58;;;;;;;;;;;2.20;99.90;;;;;;5011502;28;20408;-76
2021/12/11 13:52:26;;;;;;;17.65;11.60;;;2.20;99.90;;;;;;4993052;28;19921;-75